createdAt,value
2022-09-24T00:00:25.353Z,99701.41
2022-09-24T00:00:56.790Z,99700.09
2022-09-24T00:01:28.362Z,99705.16
2022-09-24T00:01:59.942Z,99702.22
2022-09-24T00:02:31.482Z,99703.75
2022-09-24T00:03:03.030Z,99701.72
2022-09-24T00:03:34.497Z,99700.50
2022-09-24T00:04:06.032Z,99704.94
2022-09-24T00:04:37.560Z,99697.56
2022-09-24T00:05:09.009Z,99702.53
2022-09-24T00:05:40.478Z,99701.13
2022-09-24T00:06:11.897Z,99706.28
2022-09-24T00:06:43.353Z,99708.41
2022-09-24T00:07:14.823Z,99692.81
2022-09-24T00:07:46.249Z,99696.06
2022-09-24T00:08:17.650Z,99700.91
2022-09-24T00:08:49.100Z,99700.31
2022-09-24T00:09:20.569Z,99692.63
2022-09-24T00:09:51.988Z,99698.28
2022-09-24T00:10:23.429Z,99693.13
2022-09-24T00:10:54.827Z,99692.81
2022-09-24T00:11:26.223Z,99692.00
2022-09-24T00:11:57.815Z,99689.78
2022-09-24T00:12:29.241Z,99690.78
2022-09-24T00:13:00.627Z,99689.47
2022-09-24T00:13:32.042Z,99690.28
2022-09-24T00:14:03.719Z,99690.59
2022-09-24T00:14:35.227Z,99695.44
2022-09-24T00:15:06.618Z,99689.69
2022-09-24T00:15:38.012Z,99690.50
2022-09-24T00:16:09.418Z,99692.41
2022-09-24T00:16:41.002Z,99694.53
2022-09-24T00:17:12.520Z,99689.38
2022-09-24T00:17:43.926Z,99692.91
2022-09-24T00:18:15.285Z,99694.03
2022-09-24T00:18:46.826Z,99697.06
2022-09-24T00:19:18.223Z,99687.75
2022-09-24T00:19:49.684Z,99700.00
2022-09-24T00:20:21.190Z,99695.66
2022-09-24T00:20:52.642Z,99692.91
2022-09-24T00:21:24.191Z,99691.19
2022-09-24T00:21:55.780Z,99690.69
2022-09-24T00:22:27.522Z,99697.16
2022-09-24T00:22:59.025Z,99696.34
2022-09-24T00:23:30.502Z,99701.31
2022-09-24T00:24:02.056Z,99697.16
2022-09-24T00:24:33.675Z,99693.41
2022-09-24T00:25:05.099Z,99700.00
2022-09-24T00:25:36.538Z,99696.88
2022-09-24T00:26:07.968Z,99697.88
2022-09-24T00:26:39.459Z,99694.75
2022-09-24T00:27:10.941Z,99704.03
2022-09-24T00:27:42.455Z,99697.16
2022-09-24T00:28:13.887Z,99700.50
2022-09-24T00:28:45.325Z,99700.19
2022-09-24T00:29:16.695Z,99697.16
2022-09-24T00:29:48.086Z,99700.63
2022-09-24T00:30:19.540Z,99695.97
2022-09-24T00:30:51.075Z,99696.97
2022-09-24T00:31:22.562Z,99695.84
2022-09-24T00:31:54.088Z,99691.72
2022-09-24T00:32:25.574Z,99690.91
2022-09-24T00:32:57.047Z,99694.13
2022-09-24T00:33:28.463Z,99687.56
2022-09-24T00:33:59.890Z,99691.09
2022-09-24T00:34:31.310Z,99690.78
2022-09-24T00:35:02.798Z,99696.47
2022-09-24T00:35:34.227Z,99691.31
2022-09-24T00:36:05.791Z,99696.75
2022-09-24T00:36:37.184Z,99693.72
2022-09-24T00:37:08.593Z,99692.09
2022-09-24T00:37:40.070Z,99691.31
2022-09-24T00:38:11.488Z,99694.53
2022-09-24T00:38:42.945Z,99690.19
2022-09-24T00:39:14.356Z,99694.03
2022-09-24T00:39:45.771Z,99690.69
2022-09-24T00:40:17.284Z,99694.22
2022-09-24T00:40:48.777Z,99691.19
2022-09-24T00:41:20.322Z,99689.78
2022-09-24T00:41:51.757Z,99690.88
2022-09-24T00:42:23.159Z,99688.47
2022-09-24T00:42:54.558Z,99695.53
2022-09-24T00:43:26.006Z,99692.22
2022-09-24T00:43:57.402Z,99695.75
2022-09-24T00:44:28.824Z,99689.78
2022-09-24T00:45:00.221Z,99694.94
2022-09-24T00:45:31.672Z,99692.72
2022-09-24T00:46:03.084Z,99693.31
2022-09-24T00:46:34.776Z,99688.66
2022-09-24T00:47:06.357Z,99691.69
2022-09-24T00:47:37.875Z,99690.88
2022-09-24T00:48:09.353Z,99692.22
2022-09-24T00:48:40.790Z,99694.63
2022-09-24T00:49:12.190Z,99689.56
2022-09-24T00:49:43.679Z,99687.97
2022-09-24T00:50:15.066Z,99689.06
2022-09-24T00:50:46.538Z,99689.06
2022-09-24T00:51:17.972Z,99691.19
2022-09-24T00:51:49.398Z,99684.31
2022-09-24T00:52:20.853Z,99689.97
2022-09-24T00:52:52.267Z,99686.63
2022-09-24T00:53:23.733Z,99686.13
2022-09-24T00:53:55.356Z,99685.31
2022-09-24T00:54:26.765Z,99682.28
2022-09-24T00:54:58.227Z,99689.66
2022-09-24T00:55:29.598Z,99690.38
2022-09-24T00:56:01.015Z,99697.38
2022-09-24T00:56:32.419Z,99693.72
2022-09-24T00:57:03.993Z,99693.22
2022-09-24T00:57:35.451Z,99688.38
2022-09-24T00:58:06.880Z,99693.31
2022-09-24T00:58:38.302Z,99696.38
2022-09-24T00:59:09.722Z,99696.38
2022-09-24T00:59:41.172Z,99695.25
2022-09-24T01:00:12.602Z,99702.84
2022-09-24T01:00:44.139Z,99704.25
2022-09-24T01:01:15.737Z,99699.00
2022-09-24T01:01:47.428Z,99703.66
2022-09-24T01:02:19.044Z,99697.06
2022-09-24T01:02:50.509Z,99703.03
2022-09-24T01:03:21.974Z,99700.31
2022-09-24T01:03:53.505Z,99697.78
2022-09-24T01:04:24.962Z,99697.28
2022-09-24T01:04:56.702Z,99696.47
2022-09-24T01:05:28.234Z,99700.81
2022-09-24T01:05:59.716Z,99694.84
2022-09-24T01:06:31.138Z,99696.97
2022-09-24T01:07:02.654Z,99694.25
2022-09-24T01:07:34.113Z,99695.03
2022-09-24T01:08:05.604Z,99693.22
2022-09-24T01:08:36.974Z,99695.16
2022-09-24T01:09:08.446Z,99705.06
2022-09-24T01:09:39.921Z,99693.13
2022-09-24T01:10:11.304Z,99692.81
2022-09-24T01:10:42.755Z,99692.81
2022-09-24T01:11:14.204Z,99693.31
2022-09-24T01:11:45.710Z,99693.84
2022-09-24T01:12:17.186Z,99704.97
2022-09-24T01:12:48.695Z,99698.19
2022-09-24T01:13:20.178Z,99697.38
2022-09-24T01:13:51.616Z,99697.88
2022-09-24T01:14:23.065Z,99687.16
2022-09-24T01:14:54.564Z,99691.81
2022-09-24T01:15:26.014Z,99693.13
2022-09-24T01:15:57.479Z,99699.41
2022-09-24T01:16:29.059Z,99689.59
2022-09-24T01:17:00.535Z,99689.28
2022-09-24T01:17:32.029Z,99690.38
2022-09-24T01:18:03.502Z,99687.88
2022-09-24T01:18:34.972Z,99693.31
2022-09-24T01:19:06.327Z,99689.47
2022-09-24T01:19:37.721Z,99688.66
2022-09-24T01:20:09.253Z,99695.44
2022-09-24T01:20:40.782Z,99697.38
2022-09-24T01:21:12.314Z,99697.69
2022-09-24T01:21:43.736Z,99692.50
2022-09-24T01:22:15.205Z,99693.31
2022-09-24T01:22:46.603Z,99687.25
2022-09-24T01:23:18.048Z,99685.63
2022-09-24T01:23:49.440Z,99693.22
2022-09-24T01:24:20.895Z,99692.41
2022-09-24T01:24:52.373Z,99690.78
2022-09-24T01:25:23.820Z,99693.53
2022-09-24T01:25:55.229Z,99696.25
2022-09-24T01:26:26.635Z,99693.53
2022-09-24T01:26:58.030Z,99695.75
2022-09-24T01:27:29.470Z,99699.00
2022-09-24T01:28:00.895Z,99696.75
2022-09-24T01:28:32.395Z,99701.94
2022-09-24T01:29:03.819Z,99689.06
2022-09-24T01:29:35.257Z,99695.16
2022-09-24T01:30:06.734Z,99699.19
2022-09-24T01:30:38.352Z,99692.31
2022-09-24T01:31:09.853Z,99696.97
2022-09-24T01:31:41.386Z,99702.13
2022-09-24T01:32:12.937Z,99701.00
2022-09-24T01:32:44.395Z,99695.25
2022-09-24T01:33:15.867Z,99694.75
2022-09-24T01:33:47.285Z,99691.69
2022-09-24T01:34:18.742Z,99685.44
2022-09-24T01:34:50.137Z,99689.78
2022-09-24T01:35:21.558Z,99691.41
2022-09-24T01:35:52.988Z,99687.03
2022-09-24T01:36:24.410Z,99685.94
2022-09-24T01:36:55.813Z,99682.38
2022-09-24T01:37:27.298Z,99693.81
2022-09-24T01:37:58.687Z,99684.00
2022-09-24T01:38:30.131Z,99685.44
2022-09-24T01:39:01.573Z,99685.72
2022-09-24T01:39:32.990Z,99688.47
2022-09-24T01:40:04.441Z,99686.03
2022-09-24T01:40:35.949Z,99683.00
2022-09-24T01:41:07.455Z,99686.84
2022-09-24T01:41:38.868Z,99683.50
2022-09-24T01:42:10.349Z,99682.38
2022-09-24T01:42:41.755Z,99689.16
2022-09-24T01:43:13.208Z,99679.97
2022-09-24T01:43:44.647Z,99683.00
2022-09-24T01:44:16.026Z,99683.91
2022-09-24T01:44:47.497Z,99680.38
2022-09-24T01:45:18.851Z,99684.22
2022-09-24T01:45:50.272Z,99677.44
2022-09-24T01:46:21.760Z,99682.41
2022-09-24T01:46:53.276Z,99685.44
2022-09-24T01:47:24.728Z,99682.41
2022-09-24T01:47:56.158Z,99683.81
2022-09-24T01:48:27.680Z,99682.69
2022-09-24T01:48:59.094Z,99679.47
2022-09-24T01:49:30.562Z,99678.16
2022-09-24T01:50:01.948Z,99680.06
2022-09-24T01:50:33.379Z,99672.19
2022-09-24T01:51:04.864Z,99675.41
2022-09-24T01:51:36.282Z,99675.41
2022-09-24T01:52:07.696Z,99678.75
2022-09-24T01:52:39.131Z,99678.44
2022-09-24T01:53:10.504Z,99673.28
2022-09-24T01:53:41.950Z,99667.31
2022-09-24T01:54:13.373Z,99670.66
2022-09-24T01:54:44.792Z,99674.22
2022-09-24T01:55:16.236Z,99670.38
2022-09-24T01:55:47.683Z,99662.47
2022-09-24T01:56:19.128Z,99662.16
2022-09-24T01:56:50.561Z,99668.13
2022-09-24T01:57:22.000Z,99660.56
2022-09-24T01:57:53.454Z,99669.84
2022-09-24T01:58:24.864Z,99668.44
2022-09-24T01:58:56.355Z,99667.63
2022-09-24T01:59:27.739Z,99653.97
2022-09-24T01:59:59.187Z,99664.38
2022-09-24T02:00:30.668Z,99658.94
2022-09-24T02:01:02.197Z,99661.34
2022-09-24T02:01:33.815Z,99664.09
2022-09-24T02:02:05.344Z,99662.78
2022-09-24T02:02:36.826Z,99667.63
2022-09-24T02:03:08.334Z,99662.97
2022-09-24T02:03:39.748Z,99658.94
2022-09-24T02:04:11.187Z,99658.13
2022-09-24T02:04:42.605Z,99668.44
2022-09-24T02:05:14.011Z,99660.56
2022-09-24T02:05:45.416Z,99656.19
2022-09-24T02:06:16.858Z,99656.50
2022-09-24T02:06:48.305Z,99655.38
2022-09-24T02:07:19.727Z,99653.47
2022-09-24T02:07:51.156Z,99653.47
2022-09-24T02:08:22.601Z,99647.19
2022-09-24T02:08:54.006Z,99652.34
2022-09-24T02:09:25.436Z,99656.69
2022-09-24T02:09:56.926Z,99656.19
2022-09-24T02:10:28.338Z,99654.56
2022-09-24T02:10:59.831Z,99658.13
2022-09-24T02:11:31.216Z,99654.56
2022-09-24T02:12:02.670Z,99647.50
2022-09-24T02:12:34.146Z,99653.78
2022-09-24T02:13:05.531Z,99650.22
2022-09-24T02:13:36.904Z,99649.41
2022-09-24T02:14:08.417Z,99651.03
2022-09-24T02:14:39.912Z,99650.22
2022-09-24T02:15:11.347Z,99651.84
2022-09-24T02:15:42.803Z,99651.03
2022-09-24T02:16:14.277Z,99646.38
2022-09-24T02:16:45.707Z,99649.41
2022-09-24T02:17:17.158Z,99651.03
2022-09-24T02:17:48.654Z,99647.50
2022-09-24T02:18:20.027Z,99651.03
2022-09-24T02:18:51.432Z,99656.50
2022-09-24T02:19:22.863Z,99650.22
2022-09-24T02:19:54.325Z,99649.41
2022-09-24T02:20:25.749Z,99647.50
2022-09-24T02:20:57.157Z,99649.41
2022-09-24T02:21:28.576Z,99652.16
2022-09-24T02:21:59.963Z,99647.50
2022-09-24T02:22:31.377Z,99643.16
2022-09-24T02:23:02.852Z,99645.88
2022-09-24T02:23:34.281Z,99659.53
2022-09-24T02:24:05.662Z,99648.91
2022-09-24T02:24:37.069Z,99647.28
2022-09-24T02:25:08.477Z,99649.72
2022-09-24T02:25:39.905Z,99653.56
2022-09-24T02:26:11.320Z,99652.75
2022-09-24T02:26:42.764Z,99653.56
2022-09-24T02:27:14.206Z,99652.75
2022-09-24T02:27:45.793Z,99660.16
2022-09-24T02:28:17.216Z,99651.94
2022-09-24T02:28:48.686Z,99646.50
2022-09-24T02:29:20.104Z,99661.75
2022-09-24T02:29:51.517Z,99647.59
2022-09-24T02:30:22.960Z,99650.34
2022-09-24T02:30:54.373Z,99646.78
2022-09-24T02:31:25.886Z,99648.72
2022-09-24T02:31:57.399Z,99652.25
2022-09-24T02:32:28.819Z,99647.59
2022-09-24T02:33:00.276Z,99647.59
2022-09-24T02:33:31.704Z,99648.72
2022-09-24T02:34:03.122Z,99647.09
2022-09-24T02:34:34.546Z,99646.28
2022-09-24T02:35:06.022Z,99650.94
2022-09-24T02:35:37.413Z,99649.81
2022-09-24T02:36:08.805Z,99652.25
2022-09-24T02:36:40.306Z,99643.25
2022-09-24T02:37:11.733Z,99646.28
2022-09-24T02:37:43.285Z,99650.94
2022-09-24T02:38:14.741Z,99648.22
2022-09-24T02:38:46.232Z,99643.56
2022-09-24T02:39:17.672Z,99641.63
2022-09-24T02:39:49.094Z,99640.81
2022-09-24T02:40:20.624Z,99644.38
2022-09-24T02:40:52.041Z,99644.38
2022-09-24T02:41:23.472Z,99647.41
2022-09-24T02:41:54.878Z,99650.63
2022-09-24T02:42:26.285Z,99641.63
2022-09-24T02:42:57.696Z,99643.56
2022-09-24T02:43:29.170Z,99645.47
2022-09-24T02:44:00.726Z,99645.19
2022-09-24T02:44:32.133Z,99640.81
2022-09-24T02:45:03.677Z,99645.19
2022-09-24T02:45:35.085Z,99644.38
2022-09-24T02:46:06.526Z,99647.09
2022-09-24T02:46:38.016Z,99645.47
2022-09-24T02:47:09.481Z,99638.09
2022-09-24T02:47:40.906Z,99643.25
2022-09-24T02:48:12.318Z,99639.72
2022-09-24T02:48:43.825Z,99638.09
2022-09-24T02:49:15.206Z,99643.56
2022-09-24T02:49:46.594Z,99642.44
2022-09-24T02:50:17.999Z,99640.31
2022-09-24T02:50:49.380Z,99638.91
2022-09-24T02:51:20.818Z,99645.47
2022-09-24T02:51:52.298Z,99634.25
2022-09-24T02:52:23.686Z,99648.72
2022-09-24T02:52:55.088Z,99638.09
2022-09-24T02:53:26.485Z,99633.44
2022-09-24T02:53:57.958Z,99638.91
2022-09-24T02:54:29.345Z,99646.28
2022-09-24T02:55:00.768Z,99639.72
2022-09-24T02:55:32.219Z,99643.56
2022-09-24T02:56:03.663Z,99637.28
2022-09-24T02:56:35.095Z,99638.91
2022-09-24T02:57:06.515Z,99639.72
2022-09-24T02:57:37.905Z,99638.09
2022-09-24T02:58:09.319Z,99635.06
2022-09-24T02:58:40.744Z,99633.44
2022-09-24T02:59:12.194Z,99635.06
2022-09-24T02:59:43.678Z,99637.78
2022-09-24T03:00:15.070Z,99635.88
2022-09-24T03:00:46.534Z,99635.06
2022-09-24T03:01:18.005Z,99636.97
2022-09-24T03:01:49.548Z,99636.16
2022-09-24T03:02:21.080Z,99635.38
2022-09-24T03:02:52.687Z,99634.25
2022-09-24T03:03:24.161Z,99637.78
2022-09-24T03:03:55.658Z,99638.59
2022-09-24T03:04:27.152Z,99635.38
2022-09-24T03:04:58.552Z,99634.25
2022-09-24T03:05:30.025Z,99640.53
2022-09-24T03:06:01.452Z,99634.75
2022-09-24T03:06:32.890Z,99637.78
2022-09-24T03:07:04.289Z,99636.69
2022-09-24T03:07:35.777Z,99635.06
2022-09-24T03:08:07.212Z,99645.97
2022-09-24T03:08:38.590Z,99633.13
2022-09-24T03:09:10.053Z,99635.06
2022-09-24T03:09:41.501Z,99638.59
2022-09-24T03:10:12.921Z,99636.97
2022-09-24T03:10:44.361Z,99634.25
2022-09-24T03:11:18.710Z,99633.44
2022-09-24T03:11:50.438Z,99635.06
2022-09-24T03:12:21.856Z,99630.41
2022-09-24T03:12:53.328Z,99630.72
2022-09-24T03:13:24.801Z,99630.72
2022-09-24T03:13:56.302Z,99635.06
2022-09-24T03:14:27.717Z,99632.31
2022-09-24T03:14:59.137Z,99634.25
2022-09-24T03:15:30.553Z,99632.31
2022-09-24T03:16:02.081Z,99632.31
2022-09-24T03:16:33.726Z,99627.69
2022-09-24T03:17:05.204Z,99638.91
2022-09-24T03:17:36.621Z,99630.72
2022-09-24T03:18:08.039Z,99633.44
2022-09-24T03:18:39.506Z,99635.38
2022-09-24T03:19:10.916Z,99633.44
2022-09-24T03:19:42.380Z,99631.81
2022-09-24T03:20:13.774Z,99630.72
2022-09-24T03:20:45.181Z,99635.38
2022-09-24T03:21:16.579Z,99633.75
2022-09-24T03:21:48.069Z,99629.59
2022-09-24T03:22:19.464Z,99632.31
2022-09-24T03:22:50.882Z,99633.94
2022-09-24T03:23:22.314Z,99632.31
2022-09-24T03:23:53.725Z,99625.25
2022-09-24T03:24:25.260Z,99626.88
2022-09-24T03:24:56.781Z,99635.38
2022-09-24T03:25:28.155Z,99630.19
2022-09-24T03:25:59.567Z,99632.63
2022-09-24T03:26:30.998Z,99632.63
2022-09-24T03:27:02.586Z,99631.53
2022-09-24T03:27:34.042Z,99629.09
2022-09-24T03:28:05.427Z,99629.91
2022-09-24T03:28:36.898Z,99634.56
2022-09-24T03:29:08.332Z,99630.72
2022-09-24T03:29:39.756Z,99632.63
2022-09-24T03:30:11.224Z,99628.28
2022-09-24T03:30:42.603Z,99627.47
2022-09-24T03:31:14.094Z,99631.00
2022-09-24T03:31:45.645Z,99633.75
2022-09-24T03:32:17.159Z,99634.84
2022-09-24T03:32:48.587Z,99632.94
2022-09-24T03:33:19.988Z,99630.19
2022-09-24T03:33:51.400Z,99631.00
2022-09-24T03:34:22.852Z,99629.09
2022-09-24T03:34:54.350Z,99629.09
2022-09-24T03:35:25.761Z,99624.75
2022-09-24T03:35:57.217Z,99623.09
2022-09-24T03:36:28.782Z,99625.56
2022-09-24T03:37:00.299Z,99621.19
2022-09-24T03:37:31.768Z,99625.56
2022-09-24T03:38:03.137Z,99622.81
2022-09-24T03:38:34.589Z,99625.56
2022-09-24T03:39:06.051Z,99623.31
2022-09-24T03:39:37.540Z,99622.50
2022-09-24T03:40:08.976Z,99622.00
2022-09-24T03:40:40.477Z,99623.63
2022-09-24T03:41:11.938Z,99619.28
2022-09-24T03:41:43.441Z,99621.19
2022-09-24T03:42:14.821Z,99620.38
2022-09-24T03:42:46.250Z,99621.19
2022-09-24T03:43:17.684Z,99623.94
2022-09-24T03:43:49.089Z,99620.38
2022-09-24T03:44:20.535Z,99609.16
2022-09-24T03:44:51.917Z,99609.16
2022-09-24T03:45:23.356Z,99614.31
2022-09-24T03:45:54.809Z,99613.81
2022-09-24T03:46:26.257Z,99602.91
2022-09-24T03:46:57.728Z,99615.75
2022-09-24T03:47:29.160Z,99615.44
2022-09-24T03:48:00.627Z,99603.72
2022-09-24T03:48:32.127Z,99611.91
2022-09-24T03:49:03.604Z,99613.00
2022-09-24T03:49:35.124Z,99611.09
2022-09-24T03:50:06.575Z,99609.97
2022-09-24T03:50:38.035Z,99613.81
2022-09-24T03:51:09.442Z,99611.09
2022-09-24T03:51:40.862Z,99614.63
2022-09-24T03:52:12.249Z,99602.09
2022-09-24T03:52:43.669Z,99610.28
2022-09-24T03:53:15.099Z,99610.28
2022-09-24T03:53:46.499Z,99608.63
2022-09-24T03:54:17.865Z,99613.28
2022-09-24T03:54:49.388Z,99614.09
2022-09-24T03:55:20.841Z,99616.00
2022-09-24T03:55:52.318Z,99614.91
2022-09-24T03:56:23.742Z,99616.81
2022-09-24T03:56:55.206Z,99616.56
2022-09-24T03:57:26.624Z,99616.81
2022-09-24T03:57:58.107Z,99607.81
2022-09-24T03:58:29.581Z,99617.63
2022-09-24T03:59:01.000Z,99624.22
2022-09-24T03:59:32.472Z,99616.31
2022-09-24T04:00:03.887Z,99611.09
2022-09-24T04:00:38.927Z,99617.63
2022-09-24T04:01:12.421Z,99616.81
2022-09-24T04:01:43.895Z,99618.75
2022-09-24T04:02:15.384Z,99616.00
2022-09-24T04:02:46.836Z,99617.63
2022-09-24T04:03:18.367Z,99614.09
2022-09-24T04:03:49.804Z,99616.81
2022-09-24T04:04:21.254Z,99616.81
2022-09-24T04:04:52.695Z,99611.34
2022-09-24T04:05:24.172Z,99618.25
2022-09-24T04:05:55.553Z,99615.19
2022-09-24T04:06:27.043Z,99620.66
2022-09-24T04:06:58.500Z,99619.06
2022-09-24T04:07:29.996Z,99619.84
2022-09-24T04:08:01.395Z,99614.91
2022-09-24T04:08:32.798Z,99619.56
2022-09-24T04:09:04.258Z,99615.19
2022-09-24T04:09:35.694Z,99611.66
2022-09-24T04:10:07.083Z,99615.50
2022-09-24T04:10:38.666Z,99612.78
2022-09-24T04:11:10.116Z,99614.69
2022-09-24T04:11:41.546Z,99612.78
2022-09-24T04:12:12.921Z,99613.28
2022-09-24T04:12:44.334Z,99611.66
2022-09-24T04:13:15.756Z,99609.75
2022-09-24T04:13:47.195Z,99609.75
2022-09-24T04:14:18.625Z,99614.41
2022-09-24T04:14:50.119Z,99618.75
2022-09-24T04:15:21.517Z,99614.91
2022-09-24T04:15:53.023Z,99595.78
2022-09-24T04:16:24.580Z,99610.56
2022-09-24T04:16:56.006Z,99607.81
2022-09-24T04:17:27.482Z,99603.47
2022-09-24T04:17:58.984Z,99606.72
2022-09-24T04:18:30.483Z,99605.09
2022-09-24T04:19:01.898Z,99600.44
2022-09-24T04:19:33.328Z,99601.25
2022-09-24T04:20:04.715Z,99601.25
2022-09-24T04:20:36.117Z,99605.09
2022-09-24T04:21:07.623Z,99606.72
2022-09-24T04:21:39.047Z,99596.63
2022-09-24T04:22:10.505Z,99596.91
2022-09-24T04:22:41.924Z,99610.56
2022-09-24T04:23:13.396Z,99605.09
2022-09-24T04:23:44.838Z,99595.78
2022-09-24T04:24:16.235Z,99592.25
2022-09-24T04:24:47.698Z,99599.63
2022-09-24T04:25:19.103Z,99596.63
2022-09-24T04:25:50.487Z,99595.78
2022-09-24T04:26:22.024Z,99597.19
2022-09-24T04:26:53.444Z,99595.50
2022-09-24T04:27:24.886Z,99599.06
2022-09-24T04:27:56.279Z,99597.13
2022-09-24T04:28:27.665Z,99597.13
2022-09-24T04:28:59.112Z,99600.97
2022-09-24T04:29:30.511Z,99587.31
2022-09-24T04:30:01.947Z,99595.78
2022-09-24T04:30:33.380Z,99594.16
2022-09-24T04:31:04.871Z,99593.06
2022-09-24T04:31:36.524Z,99599.34
2022-09-24T04:32:08.018Z,99595.78
2022-09-24T04:32:39.464Z,99590.31
2022-09-24T04:33:10.848Z,99595.78
2022-09-24T04:33:42.347Z,99598.25
2022-09-24T04:34:13.748Z,99590.31
2022-09-24T04:34:45.128Z,99597.72
2022-09-24T04:35:16.642Z,99597.72
2022-09-24T04:35:48.057Z,99599.34
2022-09-24T04:36:19.533Z,99599.34
2022-09-24T04:36:50.936Z,99595.50
2022-09-24T04:37:22.392Z,99597.44
2022-09-24T04:37:53.802Z,99601.25
2022-09-24T04:38:25.213Z,99593.06
2022-09-24T04:38:56.674Z,99588.72
2022-09-24T04:39:28.078Z,99595.78
2022-09-24T04:39:59.497Z,99591.97
2022-09-24T04:40:31.101Z,99591.97
2022-09-24T04:41:02.646Z,99592.78
2022-09-24T04:41:34.086Z,99593.91
2022-09-24T04:42:05.483Z,99592.25
2022-09-24T04:42:36.889Z,99593.34
2022-09-24T04:43:08.281Z,99589.81
2022-09-24T04:43:39.776Z,99587.91
2022-09-24T04:44:11.259Z,99591.44
2022-09-24T04:44:42.751Z,99596.09
2022-09-24T04:45:14.281Z,99590.31
2022-09-24T04:45:45.837Z,99586.28
2022-09-24T04:46:17.385Z,99596.09
2022-09-24T04:46:48.988Z,99590.31
2022-09-24T04:47:20.410Z,99589.50
2022-09-24T04:47:51.807Z,99594.16
2022-09-24T04:48:23.237Z,99594.16
2022-09-24T04:48:54.659Z,99593.91
2022-09-24T04:49:26.213Z,99594.97
2022-09-24T04:49:57.583Z,99595.28
2022-09-24T04:50:29.145Z,99595.78
2022-09-24T04:51:00.627Z,99589.81
2022-09-24T04:51:32.026Z,99594.47
2022-09-24T04:52:03.626Z,99585.78
2022-09-24T04:52:35.227Z,99592.03
2022-09-24T04:53:06.694Z,99590.94
2022-09-24T04:53:38.116Z,99589.81
2022-09-24T04:54:09.557Z,99587.09
2022-09-24T04:54:41.045Z,99593.66
2022-09-24T04:55:12.634Z,99588.72
2022-09-24T04:55:44.067Z,99586.28
2022-09-24T04:56:15.478Z,99585.47
2022-09-24T04:56:46.928Z,99588.72
2022-09-24T04:57:18.348Z,99588.19
2022-09-24T04:57:49.743Z,99586.28
2022-09-24T04:58:21.174Z,99581.63
2022-09-24T04:58:52.699Z,99589.00
2022-09-24T04:59:24.115Z,99587.91
2022-09-24T04:59:55.541Z,99582.75
2022-09-24T05:00:26.962Z,99583.25
2022-09-24T05:00:58.367Z,99584.34
2022-09-24T05:01:29.910Z,99579.72
2022-09-24T05:02:04.773Z,99582.44
2022-09-24T05:02:40.232Z,99587.91
2022-09-24T05:03:11.901Z,99582.44
2022-09-24T05:03:43.408Z,99581.63
2022-09-24T05:04:14.879Z,99582.75
2022-09-24T05:04:46.302Z,99585.16
2022-09-24T05:05:17.829Z,99582.13
2022-09-24T05:05:49.284Z,99588.72
2022-09-24T05:06:20.685Z,99588.72
2022-09-24T05:06:52.096Z,99590.31
2022-09-24T05:07:23.543Z,99588.72
2022-09-24T05:07:54.952Z,99585.16
2022-09-24T05:08:26.362Z,99580.81
2022-09-24T05:08:57.769Z,99584.34
2022-09-24T05:09:29.197Z,99589.81
2022-09-24T05:10:00.626Z,99584.06
2022-09-24T05:10:32.216Z,99587.09
2022-09-24T05:11:03.737Z,99590.31
2022-09-24T05:11:35.158Z,99594.16
2022-09-24T05:12:06.583Z,99585.97
2022-09-24T05:12:38.099Z,99584.88
2022-09-24T05:13:09.555Z,99586.50
2022-09-24T05:13:40.949Z,99587.09
2022-09-24T05:14:12.435Z,99591.16
2022-09-24T05:14:43.843Z,99585.16
2022-09-24T05:15:15.272Z,99588.72
2022-09-24T05:15:46.829Z,99585.97
2022-09-24T05:16:18.401Z,99589.50
2022-09-24T05:16:49.882Z,99584.88
2022-09-24T05:17:21.279Z,99591.97
2022-09-24T05:17:52.764Z,99590.31
2022-09-24T05:18:24.182Z,99584.88
2022-09-24T05:18:55.614Z,99586.78
2022-09-24T05:19:27.015Z,99585.69
2022-09-24T05:19:58.492Z,99583.25
2022-09-24T05:20:29.922Z,99584.88
2022-09-24T05:21:01.323Z,99583.25
2022-09-24T05:21:32.851Z,99586.78
2022-09-24T05:22:04.222Z,99584.88
2022-09-24T05:22:35.720Z,99583.25
2022-09-24T05:23:07.111Z,99585.09
2022-09-24T05:23:38.545Z,99591.06
2022-09-24T05:24:10.002Z,99590.56
2022-09-24T05:24:41.464Z,99586.50
2022-09-24T05:25:12.910Z,99590.31
2022-09-24T05:25:44.377Z,99587.91
2022-09-24T05:26:15.861Z,99587.91
2022-09-24T05:26:47.317Z,99586.28
2022-09-24T05:27:18.707Z,99588.19
2022-09-24T05:27:50.077Z,99584.66
2022-09-24T05:28:21.466Z,99593.66
2022-09-24T05:28:52.859Z,99595.28
2022-09-24T05:29:24.253Z,99592.25
2022-09-24T05:29:55.675Z,99591.44
2022-09-24T05:30:27.166Z,99588.19
2022-09-24T05:30:58.598Z,99587.09
2022-09-24T05:31:30.099Z,99592.56
2022-09-24T05:32:01.600Z,99587.91
2022-09-24T05:32:33.001Z,99595.78
2022-09-24T05:33:04.439Z,99589.00
2022-09-24T05:33:35.903Z,99590.13
2022-09-24T05:34:07.350Z,99584.34
2022-09-24T05:34:38.769Z,99585.47
2022-09-24T05:35:10.195Z,99590.63
2022-09-24T05:35:41.588Z,99589.00
2022-09-24T05:36:12.963Z,99589.50
2022-09-24T05:36:44.411Z,99589.50
2022-09-24T05:37:15.859Z,99584.66
2022-09-24T05:37:47.314Z,99588.72
2022-09-24T05:38:18.772Z,99589.81
2022-09-24T05:38:50.196Z,99587.09
2022-09-24T05:39:21.626Z,99588.19
2022-09-24T05:39:53.015Z,99584.34
2022-09-24T05:40:24.554Z,99585.47
2022-09-24T05:40:56.037Z,99584.66
2022-09-24T05:41:27.555Z,99586.59
2022-09-24T05:41:59.031Z,99585.47
2022-09-24T05:42:30.507Z,99588.19
2022-09-24T05:43:02.025Z,99585.47
2022-09-24T05:43:33.435Z,99585.47
2022-09-24T05:44:04.957Z,99585.47
2022-09-24T05:44:36.386Z,99585.47
2022-09-24T05:45:07.817Z,99586.78
2022-09-24T05:45:39.211Z,99581.63
2022-09-24T05:46:10.637Z,99581.63
2022-09-24T05:46:42.091Z,99587.91
2022-09-24T05:47:13.548Z,99589.81
2022-09-24T05:47:45.307Z,99578.09
2022-09-24T05:48:16.735Z,99588.19
2022-09-24T05:48:48.178Z,99586.28
2022-09-24T05:49:19.617Z,99580.00
2022-09-24T05:49:51.085Z,99588.19
2022-09-24T05:50:22.484Z,99577.28
2022-09-24T05:50:53.922Z,99591.44
2022-09-24T05:51:25.326Z,99586.28
2022-09-24T05:51:56.779Z,99587.41
2022-09-24T05:52:28.176Z,99587.09
2022-09-24T05:52:59.644Z,99590.13
2022-09-24T05:53:31.089Z,99583.84
2022-09-24T05:54:02.620Z,99584.66
2022-09-24T05:54:34.053Z,99587.09
2022-09-24T05:55:05.495Z,99581.63
2022-09-24T05:55:36.935Z,99587.09
2022-09-24T05:56:08.443Z,99586.28
2022-09-24T05:56:39.877Z,99589.81
2022-09-24T05:57:11.253Z,99586.28
2022-09-24T05:57:42.767Z,99583.25
2022-09-24T05:58:14.198Z,99587.09
2022-09-24T05:58:45.564Z,99595.28
2022-09-24T05:59:16.972Z,99583.53
2022-09-24T05:59:48.379Z,99587.09
2022-09-24T06:00:19.815Z,99591.75
2022-09-24T06:00:51.303Z,99590.94
2022-09-24T06:01:22.915Z,99589.81
2022-09-24T06:01:54.571Z,99587.41
2022-09-24T06:02:26.060Z,99592.56
2022-09-24T06:02:57.529Z,99587.91
2022-09-24T06:03:28.976Z,99587.91
2022-09-24T06:04:02.562Z,99588.19
2022-09-24T06:04:37.638Z,99587.09
2022-09-24T06:05:09.124Z,99587.09
2022-09-24T06:05:40.552Z,99582.44
2022-09-24T06:06:12.039Z,99580.50
2022-09-24T06:06:43.552Z,99587.91
2022-09-24T06:07:15.018Z,99587.91
2022-09-24T06:07:46.427Z,99582.44
2022-09-24T06:08:17.854Z,99587.09
2022-09-24T06:08:49.287Z,99587.09
2022-09-24T06:09:20.694Z,99583.25
2022-09-24T06:09:52.113Z,99586.78